createdAt,value
2018-10-19T00:02:13.921Z,101707.84
2018-10-19T00:04:46.584Z,101703.57
2018-10-19T00:07:20.133Z,101699.87
2018-10-19T00:09:52.387Z,101697.36
2018-10-19T00:12:25.871Z,101701.03
2018-10-19T00:14:57.325Z,101695.83
2018-10-19T00:17:28.616Z,101695.95
2018-10-19T00:20:00.438Z,101697.41
2018-10-19T00:22:32.035Z,101699.37
2018-10-19T00:25:03.366Z,101701.58
2018-10-19T00:27:36.235Z,101700.12
2018-10-19T00:30:08.543Z,101700.64
2018-10-19T00:32:40.927Z,101702.41
2018-10-19T00:35:12.246Z,101697.61
2018-10-19T00:37:43.568Z,101692.03
2018-10-19T00:40:14.950Z,101697.61
2018-10-19T00:42:46.360Z,101690.50
2018-10-19T00:45:18.032Z,101699.08
2018-10-19T00:47:49.976Z,101692.78
2018-10-19T00:50:21.351Z,101698.36
2018-10-19T00:52:52.771Z,101684.47
2018-10-19T00:55:24.442Z,101688.96
2018-10-19T00:57:55.872Z,101684.28
2018-10-19T01:00:27.177Z,101683.83
2018-10-19T01:02:58.626Z,101686.86
2018-10-19T01:05:30.403Z,101696.04
2018-10-19T01:08:01.753Z,101690.45
2018-10-19T01:10:33.187Z,101684.65
2018-10-19T01:13:05.236Z,101683.83
2018-10-19T01:15:37.019Z,101684.42
2018-10-19T01:18:08.362Z,101683.67
2018-10-19T01:20:40.066Z,101675.65
2018-10-19T01:23:11.461Z,101677.67
2018-10-19T01:25:43.517Z,101682.05
2018-10-19T01:28:14.814Z,101682.80
2018-10-19T01:30:46.817Z,101677.97
2018-10-19T01:33:18.168Z,101682.00
2018-10-19T01:35:49.473Z,101682.08
2018-10-19T01:38:21.177Z,101676.26
2018-10-19T01:40:52.585Z,101675.29
2018-10-19T01:43:23.916Z,101683.59
2018-10-19T01:46:01.265Z,101679.94
2018-10-19T01:48:32.612Z,101682.11
2018-10-19T01:51:04.219Z,101679.11
2018-10-19T01:53:35.518Z,101683.30
2018-10-19T01:56:06.815Z,101682.80
2018-10-19T01:58:38.156Z,101682.84
2018-10-19T02:01:09.563Z,101683.81
2018-10-19T02:03:41.319Z,101678.23
2018-10-19T02:06:12.671Z,101679.98
2018-10-19T02:08:44.400Z,101682.95
2018-10-19T02:11:15.854Z,101678.89
2018-10-19T02:13:47.142Z,101684.09
2018-10-19T02:16:18.486Z,101681.16
2018-10-19T02:18:50.255Z,101683.89
2018-10-19T02:21:22.081Z,101687.33
2018-10-19T02:23:53.412Z,101685.58
2018-10-19T02:26:25.012Z,101677.58
2018-10-19T02:28:56.588Z,101678.27
2018-10-19T02:31:28.172Z,101677.23
2018-10-19T02:33:59.488Z,101683.12
2018-10-19T02:36:30.844Z,101687.67
2018-10-19T02:39:02.549Z,101688.13
2018-10-19T02:41:33.836Z,101691.19
2018-10-19T02:44:05.637Z,101693.53
2018-10-19T02:46:38.155Z,101690.77
2018-10-19T02:49:09.621Z,101692.61
2018-10-19T02:51:40.960Z,101686.97
2018-10-19T02:54:12.291Z,101688.24
2018-10-19T02:56:43.713Z,101689.45
2018-10-19T02:59:15.674Z,101688.84
2018-10-19T03:01:47.196Z,101696.08
2018-10-19T03:04:19.075Z,101690.42
2018-10-19T03:06:50.354Z,101695.46
2018-10-19T03:09:22.214Z,101701.14
2018-10-19T03:11:53.931Z,101693.97
2018-10-19T03:14:25.297Z,101702.17
2018-10-19T03:16:56.930Z,101707.00
2018-10-19T03:19:28.472Z,101695.22
2018-10-19T03:21:59.775Z,101694.87
2018-10-19T03:24:33.301Z,101696.24
2018-10-19T03:27:04.683Z,101694.97
2018-10-19T03:29:36.293Z,101695.83
2018-10-19T03:32:07.699Z,101692.77
2018-10-19T03:34:39.360Z,101691.88
2018-10-19T03:37:10.715Z,101690.69
2018-10-19T03:39:42.439Z,101688.66
2018-10-19T03:42:14.572Z,101691.14
2018-10-19T03:44:45.885Z,101688.39
2018-10-19T03:47:17.879Z,101688.39
2018-10-19T03:49:49.190Z,101691.91
2018-10-19T03:52:21.503Z,101691.01
2018-10-19T03:54:53.326Z,101691.88
2018-10-19T03:57:24.704Z,101689.25
2018-10-19T03:59:56.496Z,101693.05
2018-10-19T04:02:27.964Z,101691.50
2018-10-19T04:04:59.674Z,101688.27
2018-10-19T04:07:31.020Z,101691.40
2018-10-19T04:10:02.668Z,101693.29
2018-10-19T04:12:34.062Z,101701.14
2018-10-19T04:15:05.489Z,101700.31
2018-10-19T04:17:36.989Z,101695.88
2018-10-19T04:20:08.607Z,101702.35
2018-10-19T04:22:39.928Z,101705.80
2018-10-19T04:25:12.539Z,101701.05
2018-10-19T04:27:45.811Z,101700.34
2018-10-19T04:30:19.311Z,101708.30
2018-10-19T04:32:50.662Z,101702.69
2018-10-19T04:35:22.041Z,101707.09
2018-10-19T04:37:53.487Z,101705.75
2018-10-19T04:40:25.742Z,101694.87
2018-10-19T04:42:57.101Z,101699.55
2018-10-19T04:45:28.775Z,101693.53
2018-10-19T04:48:00.168Z,101696.24
2018-10-19T04:50:32.380Z,101698.45
2018-10-19T04:53:04.306Z,101698.41
2018-10-19T04:55:36.590Z,101697.48
2018-10-19T04:58:07.969Z,101701.28
2018-10-19T05:00:39.647Z,101702.94
2018-10-19T05:03:11.082Z,101700.49
2018-10-19T05:05:42.340Z,101699.53
2018-10-19T05:08:15.847Z,101698.98
2018-10-19T05:10:47.375Z,101698.05
2018-10-19T05:13:18.772Z,101701.19
2018-10-19T05:15:50.320Z,101703.22
2018-10-19T05:18:21.965Z,101709.76
2018-10-19T05:20:53.721Z,101707.76
2018-10-19T05:23:25.060Z,101711.75
2018-10-19T05:25:56.393Z,101715.30
2018-10-19T05:28:28.108Z,101712.81
2018-10-19T05:30:59.715Z,101702.69
2018-10-19T05:33:31.505Z,101696.97
2018-10-19T05:36:10.213Z,101702.59
2018-10-19T05:38:41.566Z,101705.59
2018-10-19T05:41:14.221Z,101703.07
2018-10-19T05:43:46.105Z,101703.89
2018-10-19T05:46:17.456Z,101706.52
2018-10-19T05:48:52.657Z,101705.59
2018-10-19T05:51:23.998Z,101707.51
2018-10-19T05:53:55.304Z,101709.71
2018-10-19T05:56:32.626Z,101710.12
2018-10-19T05:59:05.540Z,101715.43
2018-10-19T06:01:37.705Z,101720.66
2018-10-19T06:04:26.009Z,101719.04
2018-10-19T06:07:05.065Z,101713.73
2018-10-19T06:09:36.460Z,101718.94
2018-10-19T06:12:10.214Z,101715.88
2018-10-19T06:14:41.602Z,101716.52
2018-10-19T06:17:13.337Z,101717.03
2018-10-19T06:19:44.663Z,101721.41
2018-10-19T06:22:16.217Z,101720.09
2018-10-19T06:24:47.592Z,101726.09
2018-10-19T06:27:21.239Z,101722.52
2018-10-19T06:29:53.051Z,101732.38
2018-10-19T06:32:24.597Z,101733.75
2018-10-19T06:35:03.043Z,101730.38
2018-10-19T06:37:34.332Z,101738.32
2018-10-19T06:40:06.355Z,101734.49
2018-10-19T06:42:39.092Z,101735.45
2018-10-19T06:45:13.774Z,101735.13
2018-10-19T06:47:45.877Z,101735.86
2018-10-19T06:50:17.499Z,101738.96
2018-10-19T06:52:49.038Z,101738.93
2018-10-19T06:55:21.577Z,101741.35
2018-10-19T06:57:52.991Z,101739.63
2018-10-19T07:00:39.279Z,101736.37
2018-10-19T07:03:11.036Z,101749.81
2018-10-19T07:05:51.624Z,101750.95
2018-10-19T07:08:23.013Z,101753.64
2018-10-19T07:10:54.469Z,101749.09
2018-10-19T07:13:26.064Z,101751.97
2018-10-19T07:15:57.489Z,101750.34
2018-10-19T07:18:33.011Z,101751.37
2018-10-19T07:21:05.122Z,101752.27
2018-10-19T07:23:39.199Z,101750.16
2018-10-19T07:26:11.199Z,101754.95
2018-10-19T07:28:42.671Z,101753.06
2018-10-19T07:31:14.509Z,101755.30
2018-10-19T07:33:45.880Z,101759.50
2018-10-19T07:36:17.665Z,101754.62
2018-10-19T07:38:49.334Z,101752.00
2018-10-19T07:41:20.933Z,101758.80
2018-10-19T07:43:53.293Z,101755.11
2018-10-19T07:46:25.028Z,101756.22
2018-10-19T07:48:57.115Z,101751.50
2018-10-19T07:51:28.752Z,101751.05
2018-10-19T07:54:00.411Z,101756.02
2018-10-19T07:56:31.844Z,101761.25
2018-10-19T07:59:03.653Z,101759.88
2018-10-19T08:01:34.988Z,101764.60
2018-10-19T08:04:06.751Z,101764.91
2018-10-19T08:06:38.423Z,101766.02
2018-10-19T08:09:12.594Z,101768.13
2018-10-19T08:11:43.941Z,101772.47
2018-10-19T08:14:15.557Z,101778.81
2018-10-19T08:16:46.856Z,101779.84
2018-10-19T08:19:18.205Z,101778.46
2018-10-19T08:21:49.934Z,101782.29
2018-10-19T08:24:22.348Z,101785.80
2018-10-19T08:26:53.725Z,101778.19
2018-10-19T08:29:25.859Z,101781.22
2018-10-19T08:31:58.315Z,101784.30
2018-10-19T08:34:29.672Z,101790.45
2018-10-19T08:37:01.029Z,101798.30
2018-10-19T08:39:32.362Z,101802.16
2018-10-19T08:42:03.691Z,101801.64
2018-10-19T08:44:36.077Z,101802.50
2018-10-19T08:47:07.681Z,101799.34
2018-10-19T08:49:39.382Z,101795.76
2018-10-19T08:52:11.104Z,101792.59
2018-10-19T08:54:42.476Z,101794.34
2018-10-19T08:57:14.257Z,101792.38
2018-10-19T08:59:45.551Z,101794.13
2018-10-19T09:02:17.308Z,101795.76
2018-10-19T09:04:50.252Z,101796.52
2018-10-19T09:07:21.970Z,101803.86
2018-10-19T09:09:53.730Z,101813.03
2018-10-19T09:12:25.104Z,101812.62
2018-10-19T09:14:58.216Z,101815.75
2018-10-19T09:17:29.468Z,101808.41
2018-10-19T09:20:00.823Z,101804.13
2018-10-19T09:22:32.167Z,101804.23
2018-10-19T09:25:04.379Z,101799.78
2018-10-19T09:27:35.722Z,101793.83
2018-10-19T09:30:08.076Z,101799.42
2018-10-19T09:32:39.423Z,101793.31
2018-10-19T09:35:11.630Z,101798.77
2018-10-19T09:37:42.891Z,101791.05
2018-10-19T09:40:14.651Z,101789.50
2018-10-19T09:42:45.898Z,101783.19
2018-10-19T09:45:17.536Z,101781.77
2018-10-19T09:47:49.266Z,101780.02
2018-10-19T09:50:21.819Z,101780.80
2018-10-19T09:52:53.217Z,101776.05
2018-10-19T09:55:24.578Z,101772.15
2018-10-19T09:57:55.898Z,101776.88
2018-10-19T10:00:50.282Z,101772.83
2018-10-19T10:03:21.619Z,101779.97
2018-10-19T10:05:53.301Z,101776.27
2018-10-19T10:08:25.228Z,101780.41
2018-10-19T10:10:56.957Z,101779.28
2018-10-19T10:13:28.499Z,101780.18
2018-10-19T10:15:59.811Z,101771.94
2018-10-19T10:18:31.512Z,101772.20
2018-10-19T10:21:03.246Z,101775.37
2018-10-19T10:23:34.712Z,101772.27
2018-10-19T10:26:06.465Z,101770.70
2018-10-19T10:28:37.787Z,101772.50
2018-10-19T10:31:09.915Z,101766.44
2018-10-19T10:33:41.403Z,101761.70
2018-10-19T10:36:12.734Z,101760.95
2018-10-19T10:38:45.843Z,101765.10
2018-10-19T10:41:17.925Z,101767.53
2018-10-19T10:43:49.292Z,101761.42
2018-10-19T10:46:20.624Z,101752.55
2018-10-19T10:48:51.993Z,101749.25
2018-10-19T10:51:23.985Z,101749.63
2018-10-19T10:53:57.101Z,101753.41
2018-10-19T10:56:30.090Z,101758.76
2018-10-19T10:59:03.338Z,101754.67
2018-10-19T11:01:35.805Z,101751.31
2018-10-19T11:04:09.865Z,101748.16
2018-10-19T11:06:42.656Z,101745.00
2018-10-19T11:09:15.621Z,101727.94
2018-10-19T11:11:48.741Z,101722.97
2018-10-19T11:14:21.857Z,101720.47
2018-10-19T11:16:53.153Z,101716.33
2018-10-19T11:19:24.581Z,101712.02
2018-10-19T11:21:55.964Z,101712.23
2018-10-19T11:24:27.235Z,101714.36
2018-10-19T11:26:58.613Z,101707.34
2018-10-19T11:29:29.968Z,101707.80
2018-10-19T11:32:01.295Z,101702.09
2018-10-19T11:34:32.643Z,101697.25
2018-10-19T11:37:04.456Z,101698.89
2018-10-19T11:39:36.117Z,101698.19
2018-10-19T11:42:08.087Z,101697.84
2018-10-19T11:44:39.647Z,101698.17
2018-10-19T11:47:11.045Z,101696.33
2018-10-19T11:49:42.409Z,101686.36
2018-10-19T11:52:15.689Z,101689.09
2018-10-19T11:54:47.424Z,101686.29
2018-10-19T11:57:21.365Z,101688.30
2018-10-19T11:59:56.770Z,101683.53
2018-10-19T12:02:28.182Z,101680.16
2018-10-19T12:04:59.531Z,101680.38
2018-10-19T12:07:30.928Z,101682.28
2018-10-19T12:10:02.596Z,101686.61
2018-10-19T12:12:37.221Z,101681.91
2018-10-19T12:15:10.431Z,101685.34
2018-10-19T12:17:42.865Z,101683.72
2018-10-19T12:20:15.689Z,101682.49
2018-10-19T12:22:47.795Z,101677.47
2018-10-19T12:25:19.418Z,101676.02
2018-10-19T12:27:50.764Z,101670.66
2018-10-19T12:30:22.084Z,101671.25
2018-10-19T12:32:53.706Z,101673.29
2018-10-19T12:35:25.432Z,101666.08
2018-10-19T12:37:58.522Z,101676.05
2018-10-19T12:40:30.852Z,101673.52
2018-10-19T12:43:03.146Z,101672.83
2018-10-19T12:46:31.333Z,101669.20
2018-10-19T12:49:03.086Z,101674.97
2018-10-19T12:51:34.807Z,101670.80
2018-10-19T12:54:06.778Z,101669.20
2018-10-19T12:56:38.045Z,101667.83
2018-10-19T12:59:12.390Z,101665.23
2018-10-19T13:01:43.837Z,101656.43
2018-10-19T13:04:15.160Z,101659.83
2018-10-19T13:06:46.857Z,101653.66
2018-10-19T13:09:18.306Z,101650.70
2018-10-19T13:11:49.813Z,101647.59
2018-10-19T13:14:21.418Z,101646.76
2018-10-19T13:16:53.315Z,101638.95
2018-10-19T13:19:25.304Z,101633.91
2018-10-19T13:21:57.075Z,101636.34
2018-10-19T13:24:28.764Z,101645.72
2018-10-19T13:27:00.318Z,101635.56
2018-10-19T13:29:31.717Z,101630.09
2018-10-19T13:32:03.141Z,101626.67
2018-10-19T13:34:34.607Z,101629.80
2018-10-19T13:37:06.092Z,101622.61
2018-10-19T13:39:38.376Z,101626.87
2018-10-19T13:42:10.370Z,101628.89
2018-10-19T13:44:46.357Z,101623.63
2018-10-19T13:47:17.989Z,101620.84
2018-10-19T13:49:49.354Z,101623.94
2018-10-19T13:52:21.681Z,101616.74
2018-10-19T13:54:53.424Z,101612.23
2018-10-19T13:57:28.168Z,101611.69
2018-10-19T14:00:00.785Z,101610.37
2018-10-19T14:02:32.177Z,101605.04
2018-10-19T14:05:08.547Z,101603.39
2018-10-19T14:07:39.905Z,101599.53
2018-10-19T14:10:15.947Z,101596.89
2018-10-19T14:12:48.754Z,101599.68
2018-10-19T14:15:20.655Z,101596.34
2018-10-19T14:17:56.559Z,101595.58
2018-10-19T14:20:33.399Z,101597.66
2018-10-19T14:23:06.833Z,101590.92
2018-10-19T14:25:38.713Z,101591.02
2018-10-19T14:28:10.028Z,101590.86
2018-10-19T14:30:41.609Z,101582.50
2018-10-19T14:33:13.370Z,101583.88
2018-10-19T14:35:45.259Z,101591.23
2018-10-19T14:38:17.003Z,101593.86
2018-10-19T14:40:48.857Z,101592.02
2018-10-19T14:43:20.197Z,101587.67
2018-10-19T14:45:51.825Z,101585.99
2018-10-19T14:48:23.725Z,101582.41
2018-10-19T14:50:56.659Z,101587.16
2018-10-19T14:53:28.715Z,101586.45
2018-10-19T14:56:00.808Z,101587.52
2018-10-19T14:58:33.505Z,101594.56
2018-10-19T15:01:05.091Z,101597.05
2018-10-19T15:03:36.397Z,101597.20
2018-10-19T15:06:08.237Z,101593.19
2018-10-19T15:08:39.876Z,101592.08
2018-10-19T15:11:11.319Z,101590.14
2018-10-19T15:13:42.533Z,101590.36
2018-10-19T15:16:13.935Z,101589.69
2018-10-19T15:18:45.302Z,101584.32
2018-10-19T15:21:16.675Z,101589.98
2018-10-19T15:23:50.443Z,101590.66
2018-10-19T15:26:22.003Z,101593.44
2018-10-19T15:28:55.934Z,101590.64
2018-10-19T15:31:28.313Z,101576.39
2018-10-19T15:34:02.642Z,101579.69
2018-10-19T15:36:38.487Z,101581.11
2018-10-19T15:39:13.151Z,101587.93
2018-10-19T15:41:44.688Z,101592.56
2018-10-19T15:44:16.382Z,101595.06
2018-10-19T15:46:48.138Z,101599.20
2018-10-19T15:49:20.350Z,101600.13
2018-10-19T15:51:51.706Z,101599.50
2018-10-19T15:54:29.113Z,101598.09
2018-10-19T15:57:00.547Z,101596.37
2018-10-19T15:59:31.860Z,101598.19
2018-10-19T16:02:03.300Z,101601.50
2018-10-19T16:04:37.103Z,101607.33
2018-10-19T16:07:14.320Z,101609.75
2018-10-19T16:09:46.019Z,101613.77
2018-10-19T16:12:20.600Z,101618.11
2018-10-19T16:14:52.017Z,101624.70
2018-10-19T16:17:27.026Z,101625.00
2018-10-19T16:19:58.537Z,101620.66
2018-10-19T16:22:29.878Z,101633.06
2018-10-19T16:25:01.288Z,101625.71
2018-10-19T16:27:33.287Z,101630.22
2018-10-19T16:30:04.559Z,101635.39
2018-10-19T16:32:36.409Z,101633.31
2018-10-19T16:35:07.981Z,101636.80
2018-10-19T16:37:39.581Z,101635.15
2018-10-19T16:40:11.028Z,101633.37
2018-10-19T16:42:42.709Z,101636.25
2018-10-19T16:45:14.124Z,101640.75
2018-10-19T16:47:45.500Z,101650.13
2018-10-19T16:50:16.914Z,101658.55
2018-10-19T16:52:48.549Z,101660.97
2018-10-19T16:55:19.868Z,101652.59
2018-10-19T16:57:51.213Z,101663.29
2018-10-19T17:00:22.571Z,101661.11
2018-10-19T17:02:54.290Z,101662.67
2018-10-19T17:05:25.658Z,101659.18
2018-10-19T17:07:57.160Z,101670.17
2018-10-19T17:10:28.503Z,101665.82
2018-10-19T17:13:00.221Z,101666.45
2018-10-19T17:15:31.546Z,101667.01
2018-10-19T17:18:02.964Z,101666.61
2018-10-19T17:20:36.372Z,101665.30
2018-10-19T17:23:07.748Z,101671.59
2018-10-19T17:25:39.106Z,101667.42
2018-10-19T17:28:10.891Z,101667.02
2018-10-19T17:30:42.218Z,101668.73
2018-10-19T17:33:13.526Z,101678.64
2018-10-19T17:35:45.144Z,101692.86
2018-10-19T17:38:17.506Z,101699.22
2018-10-19T17:40:50.980Z,101695.88
2018-10-19T17:43:22.439Z,101698.91
2018-10-19T17:45:53.791Z,101710.09
2018-10-19T17:48:25.344Z,101719.53
2018-10-19T17:50:56.799Z,101727.02
2018-10-19T17:53:31.117Z,101717.86
2018-10-19T17:56:02.882Z,101726.35
2018-10-19T17:58:34.223Z,101723.62
2018-10-19T18:01:05.595Z,101724.30
2018-10-19T18:03:36.975Z,101727.61
2018-10-19T18:06:09.071Z,101733.38
2018-10-19T18:08:40.569Z,101735.37
2018-10-19T18:11:11.989Z,101747.29
2018-10-19T18:13:43.257Z,101744.71
2018-10-19T18:16:14.990Z,101741.81
2018-10-19T18:18:46.301Z,101741.89
2018-10-19T18:21:18.962Z,101738.22
2018-10-19T18:23:50.656Z,101739.34
2018-10-19T18:26:21.944Z,101742.56
2018-10-19T18:28:53.359Z,101747.59
2018-10-19T18:31:24.686Z,101751.20
2018-10-19T18:33:55.984Z,101754.64
2018-10-19T18:36:27.429Z,101756.58
2018-10-19T18:38:59.072Z,101754.63
2018-10-19T18:41:30.421Z,101763.27
2018-10-19T18:44:01.868Z,101765.69
2018-10-19T18:46:34.839Z,101767.34
2018-10-19T18:49:06.344Z,101771.98
2018-10-19T18:51:37.774Z,101775.59
2018-10-19T18:54:10.393Z,101778.09
2018-10-19T18:56:43.395Z,101780.48
2018-10-19T18:59:15.987Z,101783.92
2018-10-19T19:01:49.136Z,101789.91
2018-10-19T19:04:21.517Z,101789.17
2018-10-19T19:06:53.291Z,101793.03
2018-10-19T19:09:25.287Z,101801.77
2018-10-19T19:11:57.804Z,101802.30
2018-10-19T19:14:30.173Z,101801.84
2018-10-19T19:17:02.326Z,101806.36
2018-10-19T19:19:34.861Z,101810.99
2018-10-19T19:22:07.110Z,101812.91
2018-10-19T19:25:06.944Z,101813.06
2018-10-19T19:27:39.047Z,101815.69
2018-10-19T19:30:12.718Z,101817.73
2018-10-19T19:33:02.359Z,101813.00
2018-10-19T19:35:34.251Z,101813.91
2018-10-19T19:38:08.225Z,101819.50
2018-10-19T19:41:05.112Z,101813.54
2018-10-19T19:43:38.127Z,101822.02
2018-10-19T19:46:10.209Z,101825.23
2018-10-19T19:48:59.787Z,101816.73
2018-10-19T19:51:37.440Z,101814.33
2018-10-19T19:54:09.682Z,101810.61
2018-10-19T19:56:43.452Z,101810.95
2018-10-19T19:59:21.596Z,101811.33
2018-10-19T20:01:54.760Z,101805.62
2018-10-19T20:04:26.862Z,101814.43
2018-10-19T20:06:59.179Z,101816.87
2018-10-19T20:09:33.799Z,101822.20
2018-10-19T20:12:05.937Z,101822.84
2018-10-19T20:14:38.258Z,101820.26
2018-10-19T20:17:10.173Z,101817.78
2018-10-19T20:19:42.644Z,101816.51
2018-10-19T20:22:16.363Z,101811.26
2018-10-19T20:24:48.076Z,101809.84
2018-10-19T20:27:21.024Z,101809.20
2018-10-19T20:29:55.778Z,101812.64
2018-10-19T20:32:30.709Z,101807.61
2018-10-19T20:35:02.954Z,101810.65
2018-10-19T20:37:35.630Z,101811.59
2018-10-19T20:40:09.015Z,101816.41
2018-10-19T20:42:41.616Z,101820.63
2018-10-19T20:45:14.229Z,101830.08
2018-10-19T20:47:46.559Z,101822.42
2018-10-19T20:50:19.105Z,101836.36
2018-10-19T20:52:50.840Z,101841.88
2018-10-19T20:55:22.656Z,101841.05
2018-10-19T20:57:57.285Z,101847.50
2018-10-19T21:00:33.589Z,101853.13
2018-10-19T21:03:07.949Z,101846.92
2018-10-19T21:05:44.580Z,101848.13
2018-10-19T21:08:17.618Z,101849.89
2018-10-19T21:10:51.343Z,101855.20
2018-10-19T21:13:23.592Z,101856.67
2018-10-19T21:15:55.986Z,101856.52
2018-10-19T21:18:31.534Z,101857.22
2018-10-19T21:21:04.245Z,101861.27
2018-10-19T21:23:36.412Z,101862.67
2018-10-19T21:26:09.027Z,101863.95
2018-10-19T21:28:41.423Z,101858.84
2018-10-19T21:31:16.529Z,101855.66
2018-10-19T21:33:49.008Z,101857.80
2018-10-19T21:36:22.157Z,101863.25
2018-10-19T21:38:54.712Z,101867.70
2018-10-19T21:41:26.700Z,101869.38
2018-10-19T21:43:58.848Z,101857.86
2018-10-19T21:46:30.694Z,101857.97
2018-10-19T21:49:03.160Z,101865.38
2018-10-19T21:51:35.997Z,101868.50
2018-10-19T21:54:08.113Z,101865.98
2018-10-19T21:56:39.973Z,101864.99
2018-10-19T21:59:13.604Z,101861.09
2018-10-19T22:01:49.574Z,101865.27
2018-10-19T22:04:25.593Z,101869.47
2018-10-19T22:06:57.726Z,101874.40
2018-10-19T22:09:30.413Z,101868.22
2018-10-19T22:12:02.907Z,101871.31
2018-10-19T22:14:34.819Z,101876.09
2018-10-19T22:17:06.815Z,101880.72
2018-10-19T22:19:40.542Z,101881.90
2018-10-19T22:22:12.447Z,101883.91
2018-10-19T22:24:47.135Z,101900.77
2018-10-19T22:27:19.503Z,101900.31
2018-10-19T22:29:51.607Z,101897.45
2018-10-19T22:32:24.639Z,101910.20
2018-10-19T22:34:56.689Z,101919.30
2018-10-19T22:37:29.048Z,101917.03
2018-10-19T22:40:03.952Z,101913.14
2018-10-19T22:42:36.481Z,101902.38
2018-10-19T22:45:08.669Z,101910.92
2018-10-19T22:47:40.791Z,101914.64
2018-10-19T22:50:12.622Z,101914.56
2018-10-19T22:52:44.394Z,101891.67
2018-10-19T22:55:16.375Z,101889.38
2018-10-19T22:57:50.171Z,101895.14
2018-10-19T23:00:22.441Z,101907.50
2018-10-19T23:02:54.919Z,101920.72
2018-10-19T23:05:26.880Z,101936.70
2018-10-19T23:07:58.923Z,101944.44
2018-10-19T23:10:30.860Z,101930.83
2018-10-19T23:13:02.608Z,101936.72
2018-10-19T23:15:35.294Z,101933.59
2018-10-19T23:18:07.704Z,101946.56
2018-10-19T23:20:40.006Z,101956.69
2018-10-19T23:23:12.116Z,101954.69
2018-10-19T23:25:43.816Z,101953.75
2018-10-19T23:28:16.522Z,101951.87
2018-10-19T23:30:48.285Z,101939.30
2018-10-19T23:33:20.331Z,101943.08
2018-10-19T23:35:52.385Z,101945.54
2018-10-19T23:38:24.747Z,101950.16
2018-10-19T23:40:57.400Z,101948.84
2018-10-19T23:43:29.712Z,101941.32
2018-10-19T23:46:01.756Z,101940.02
2018-10-19T23:48:33.692Z,101934.89
2018-10-19T23:51:05.547Z,101932.38
2018-10-19T23:53:40.479Z,101921.55
2018-10-19T23:56:13.037Z,101925.98
2018-10-19T23:58:47.357Z,101931.88
